createdAt,value
2023-05-06T00:00:19.908Z,33.86
2023-05-06T00:01:19.959Z,33.86
2023-05-06T00:02:20.071Z,33.87
2023-05-06T00:03:20.185Z,33.86
2023-05-06T00:04:20.185Z,33.85
2023-05-06T00:05:20.219Z,33.83
2023-05-06T00:06:20.280Z,33.90
2023-05-06T00:07:20.383Z,33.86
2023-05-06T00:08:20.406Z,33.92
2023-05-06T00:09:20.484Z,33.84
2023-05-06T00:10:20.540Z,33.86
2023-05-06T00:11:20.618Z,33.86
2023-05-06T00:12:20.684Z,33.88
2023-05-06T00:13:20.877Z,33.91
2023-05-06T00:14:20.815Z,33.89
2023-05-06T00:15:20.914Z,33.84
2023-05-06T00:16:21.001Z,33.86
2023-05-06T00:17:21.042Z,33.92
2023-05-06T00:18:21.115Z,33.89
2023-05-06T00:19:21.196Z,33.88
2023-05-06T00:20:21.259Z,33.88
2023-05-06T00:21:21.326Z,33.88
2023-05-06T00:22:21.377Z,33.89
2023-05-06T00:23:21.402Z,33.88
2023-05-06T00:24:21.491Z,33.89
2023-05-06T00:25:21.550Z,33.88
2023-05-06T00:26:21.617Z,33.92
2023-05-06T00:27:21.685Z,33.88
2023-05-06T00:28:21.757Z,33.92
2023-05-06T00:29:21.924Z,33.91
2023-05-06T00:30:21.902Z,33.99
2023-05-06T00:31:21.997Z,33.90
2023-05-06T00:32:22.013Z,33.91
2023-05-06T00:33:22.080Z,33.92
2023-05-06T00:34:22.146Z,33.92
2023-05-06T00:35:22.210Z,33.92
2023-05-06T00:36:22.267Z,33.93
2023-05-06T00:37:22.310Z,33.90
2023-05-06T00:38:22.347Z,33.86
2023-05-06T00:39:22.394Z,33.90
2023-05-06T00:40:22.450Z,33.92
2023-05-06T00:41:22.484Z,33.92
2023-05-06T00:42:22.535Z,33.89
2023-05-06T00:43:22.584Z,33.89
2023-05-06T00:44:22.650Z,33.91
2023-05-06T00:45:22.896Z,33.90
2023-05-06T00:46:22.861Z,33.92
2023-05-06T00:47:22.796Z,33.92
2023-05-06T00:48:22.843Z,33.92
2023-05-06T00:49:22.906Z,33.93
2023-05-06T00:50:22.984Z,33.90
2023-05-06T00:51:23.791Z,33.89
2023-05-06T00:52:23.043Z,33.91
2023-05-06T00:53:23.044Z,33.90
2023-05-06T00:54:23.058Z,33.91
2023-05-06T00:55:23.093Z,33.92
2023-05-06T00:56:23.106Z,33.90
2023-05-06T00:57:23.124Z,33.91
2023-05-06T00:58:23.164Z,33.89
2023-05-06T00:59:23.237Z,33.95
2023-05-06T01:00:23.237Z,33.90
2023-05-06T01:01:23.443Z,33.93
2023-05-06T01:02:26.312Z,33.98
2023-05-06T01:03:23.402Z,33.91
2023-05-06T01:04:23.331Z,33.95
2023-05-06T01:05:23.345Z,33.89
2023-05-06T01:06:23.296Z,33.90
2023-05-06T01:07:23.302Z,33.98
2023-05-06T01:08:23.288Z,33.92
2023-05-06T01:09:23.292Z,33.91
2023-05-06T01:10:23.302Z,33.91
2023-05-06T01:11:23.291Z,33.94
2023-05-06T01:12:23.303Z,33.97
2023-05-06T01:13:23.358Z,33.93
2023-05-06T01:14:23.306Z,33.94
2023-05-06T01:15:23.297Z,33.91
2023-05-06T01:16:23.318Z,33.93
2023-05-06T01:17:23.431Z,33.94
2023-05-06T01:18:23.306Z,33.98
2023-05-06T01:19:23.294Z,33.91
2023-05-06T01:20:23.300Z,33.94
2023-05-06T01:21:23.295Z,33.91
2023-05-06T01:22:23.292Z,33.96
2023-05-06T01:23:23.290Z,33.92
2023-05-06T01:24:23.289Z,33.98
2023-05-06T01:25:23.308Z,33.95
2023-05-06T01:26:23.285Z,33.91
2023-05-06T01:27:23.293Z,33.94
2023-05-06T01:28:23.286Z,33.91
2023-05-06T01:29:23.302Z,33.93
2023-05-06T01:30:23.295Z,33.95
2023-05-06T01:31:23.332Z,33.94
2023-05-06T01:32:23.363Z,33.95
2023-05-06T01:33:23.366Z,33.90
2023-05-06T01:34:23.272Z,33.95
2023-05-06T01:35:23.274Z,33.95
2023-05-06T01:36:23.265Z,33.96
2023-05-06T01:37:23.280Z,33.91
2023-05-06T01:38:23.270Z,33.94
2023-05-06T01:39:23.270Z,33.95
2023-05-06T01:40:23.276Z,34.00
2023-05-06T01:41:23.303Z,33.94
2023-05-06T01:42:23.367Z,33.91
2023-05-06T01:43:23.406Z,33.94
2023-05-06T01:44:23.466Z,33.92
2023-05-06T01:45:23.503Z,33.92
2023-05-06T01:46:23.579Z,33.94
2023-05-06T01:47:23.552Z,33.90
2023-05-06T01:48:23.562Z,33.92
2023-05-06T01:49:23.682Z,33.89
2023-05-06T01:50:23.629Z,33.92
2023-05-06T01:51:23.608Z,33.95
2023-05-06T01:52:23.612Z,33.95
2023-05-06T01:53:23.637Z,33.89
2023-05-06T01:54:23.652Z,33.91
2023-05-06T01:55:23.679Z,33.95
2023-05-06T01:56:23.682Z,33.91
2023-05-06T01:57:23.690Z,33.94
2023-05-06T01:58:23.702Z,33.95
2023-05-06T01:59:23.704Z,33.93
2023-05-06T02:00:23.725Z,33.98
2023-05-06T02:01:23.858Z,33.94
2023-05-06T02:02:23.771Z,33.93
2023-05-06T02:03:23.813Z,33.92
2023-05-06T02:04:23.769Z,33.95
2023-05-06T02:05:23.890Z,33.94
2023-05-06T02:06:23.793Z,33.91
2023-05-06T02:07:23.800Z,33.92
2023-05-06T02:08:23.806Z,33.95
2023-05-06T02:09:23.801Z,33.93
2023-05-06T02:10:23.796Z,33.92
2023-05-06T02:11:23.796Z,33.94
2023-05-06T02:12:23.782Z,33.96
2023-05-06T02:13:23.793Z,33.92
2023-05-06T02:14:23.794Z,33.92
2023-05-06T02:15:23.803Z,33.93
2023-05-06T02:16:23.808Z,33.96
2023-05-06T02:17:23.805Z,33.94
2023-05-06T02:18:23.805Z,33.98
2023-05-06T02:19:23.800Z,33.98
2023-05-06T02:20:23.811Z,33.94
2023-05-06T02:21:23.948Z,33.99
2023-05-06T02:22:23.825Z,33.94
2023-05-06T02:23:23.812Z,33.96
2023-05-06T02:24:23.831Z,33.97
2023-05-06T02:25:23.874Z,33.94
2023-05-06T02:26:23.932Z,33.94
2023-05-06T02:27:23.967Z,33.93
2023-05-06T02:28:23.971Z,33.94
2023-05-06T02:29:23.985Z,33.92
2023-05-06T02:30:23.988Z,33.96
2023-05-06T02:31:24.075Z,33.89
2023-05-06T02:32:24.076Z,33.95
2023-05-06T02:33:24.057Z,33.97
2023-05-06T02:34:24.075Z,33.96
2023-05-06T02:35:24.101Z,33.94
2023-05-06T02:36:24.177Z,33.97
2023-05-06T02:37:24.245Z,34.00
2023-05-06T02:38:24.169Z,33.96
2023-05-06T02:39:24.182Z,33.93
2023-05-06T02:40:24.196Z,33.98
2023-05-06T02:41:24.200Z,33.94
2023-05-06T02:42:24.238Z,33.98
2023-05-06T02:43:24.229Z,33.96
2023-05-06T02:44:24.227Z,33.95
2023-05-06T02:45:24.343Z,33.98
2023-05-06T02:46:24.320Z,34.00
2023-05-06T02:47:24.386Z,33.95
2023-05-06T02:48:24.312Z,33.96
2023-05-06T02:49:24.315Z,33.95
2023-05-06T02:50:24.344Z,34.01
2023-05-06T02:51:24.333Z,33.97
2023-05-06T02:52:24.359Z,33.97
2023-05-06T02:53:24.535Z,33.99
2023-05-06T02:54:24.424Z,34.00
2023-05-06T02:55:24.439Z,34.01
2023-05-06T02:56:24.447Z,33.95
2023-05-06T02:57:24.437Z,33.94
2023-05-06T02:58:24.431Z,33.99
2023-05-06T02:59:24.451Z,33.99
2023-05-06T03:00:24.450Z,33.98
2023-05-06T03:01:25.371Z,33.94
2023-05-06T03:02:24.491Z,33.94
2023-05-06T03:03:24.471Z,34.02
2023-05-06T03:04:24.522Z,33.98
2023-05-06T03:05:24.487Z,33.99
2023-05-06T03:06:24.491Z,33.97
2023-05-06T03:07:24.480Z,33.97
2023-05-06T03:08:24.480Z,34.00
2023-05-06T03:09:24.588Z,34.01
2023-05-06T03:10:24.510Z,33.93
2023-05-06T03:11:24.526Z,33.95
2023-05-06T03:12:24.521Z,33.99
2023-05-06T03:13:24.545Z,33.99
2023-05-06T03:14:24.529Z,34.01
2023-05-06T03:15:24.558Z,33.98
2023-05-06T03:16:24.612Z,34.02
2023-05-06T03:17:24.558Z,33.99
2023-05-06T03:18:24.555Z,34.00
2023-05-06T03:19:24.564Z,33.95
2023-05-06T03:20:24.601Z,33.98
2023-05-06T03:21:24.600Z,33.97
2023-05-06T03:22:24.580Z,33.98
2023-05-06T03:23:24.603Z,34.03
2023-05-06T03:24:24.591Z,34.03
2023-05-06T03:25:24.691Z,33.98
2023-05-06T03:26:24.596Z,34.03
2023-05-06T03:27:24.600Z,33.98
2023-05-06T03:28:24.695Z,33.99
2023-05-06T03:29:24.617Z,33.98
2023-05-06T03:30:24.618Z,33.95
2023-05-06T03:31:24.677Z,34.00
2023-05-06T03:32:24.699Z,33.97
2023-05-06T03:33:24.632Z,34.02
2023-05-06T03:34:24.644Z,33.97
2023-05-06T03:35:24.637Z,34.00
2023-05-06T03:36:25.482Z,34.00
2023-05-06T03:37:24.674Z,33.98
2023-05-06T03:38:24.658Z,34.02
2023-05-06T03:39:24.675Z,33.99
2023-05-06T03:40:24.674Z,33.99
2023-05-06T03:41:24.805Z,33.95
2023-05-06T03:42:24.711Z,34.00
2023-05-06T03:43:24.705Z,33.99
2023-05-06T03:44:24.728Z,33.99
2023-05-06T03:45:24.733Z,34.00
2023-05-06T03:46:24.784Z,33.95
2023-05-06T03:47:24.799Z,34.00
2023-05-06T03:48:24.796Z,34.00
2023-05-06T03:49:24.824Z,33.99
2023-05-06T03:50:24.837Z,33.99
2023-05-06T03:51:24.845Z,34.03
2023-05-06T03:52:24.834Z,34.00
2023-05-06T03:53:24.846Z,34.02
2023-05-06T03:54:24.845Z,34.04
2023-05-06T03:55:24.851Z,33.96
2023-05-06T03:56:24.863Z,34.00
2023-05-06T03:57:24.931Z,34.00
2023-05-06T03:58:24.873Z,33.96
2023-05-06T03:59:24.873Z,34.02
2023-05-06T04:00:24.877Z,34.02
2023-05-06T04:01:24.888Z,34.03
2023-05-06T04:02:25.036Z,33.99
2023-05-06T04:03:24.979Z,33.99
2023-05-06T04:04:24.898Z,34.00
2023-05-06T04:05:24.904Z,34.00
2023-05-06T04:06:24.908Z,34.02
2023-05-06T04:07:24.909Z,34.00
2023-05-06T04:08:24.927Z,33.99
2023-05-06T04:09:24.935Z,34.00
2023-05-06T04:10:24.926Z,34.05
2023-05-06T04:11:24.930Z,33.99
2023-05-06T04:12:24.937Z,33.99
2023-05-06T04:13:25.042Z,33.99
2023-05-06T04:14:24.970Z,34.02
2023-05-06T04:15:25.010Z,34.03
2023-05-06T04:16:25.115Z,33.99
2023-05-06T04:17:25.063Z,34.00
2023-05-06T04:18:25.045Z,33.96
2023-05-06T04:19:25.061Z,34.00
2023-05-06T04:20:25.074Z,33.99
2023-05-06T04:21:25.088Z,34.03
2023-05-06T04:22:25.091Z,34.03
2023-05-06T04:23:25.091Z,33.98
2023-05-06T04:24:25.097Z,34.01
2023-05-06T04:25:25.113Z,33.97
2023-05-06T04:26:25.125Z,34.04
2023-05-06T04:27:25.139Z,33.99
2023-05-06T04:28:25.149Z,34.00
2023-05-06T04:29:25.284Z,34.00
2023-05-06T04:30:25.185Z,34.00
2023-05-06T04:31:25.206Z,34.01
2023-05-06T04:32:25.229Z,34.04
2023-05-06T04:33:25.221Z,34.03
2023-05-06T04:34:25.313Z,34.00
2023-05-06T04:35:25.240Z,34.00
2023-05-06T04:36:25.242Z,34.03
2023-05-06T04:37:25.235Z,34.03
2023-05-06T04:38:25.248Z,34.01
2023-05-06T04:39:25.265Z,34.00
2023-05-06T04:40:25.262Z,33.98
2023-05-06T04:41:25.271Z,34.00
2023-05-06T04:42:25.276Z,34.00
2023-05-06T04:43:25.289Z,34.03
2023-05-06T04:44:25.299Z,34.01
2023-05-06T04:45:25.502Z,34.03
2023-05-06T04:46:25.360Z,34.04
2023-05-06T04:47:25.334Z,34.01
2023-05-06T04:48:25.322Z,34.05
2023-05-06T04:49:25.325Z,34.00
2023-05-06T04:50:25.326Z,34.01
2023-05-06T04:51:25.335Z,34.04
2023-05-06T04:52:25.346Z,34.04
2023-05-06T04:53:25.355Z,34.02
2023-05-06T04:54:25.356Z,34.03
2023-05-06T04:55:25.359Z,33.95
2023-05-06T04:56:25.364Z,34.03
2023-05-06T04:57:25.386Z,34.00
2023-05-06T04:58:25.377Z,34.01
2023-05-06T04:59:25.409Z,34.03
2023-05-06T05:00:25.402Z,34.04
2023-05-06T05:01:25.573Z,34.05
2023-05-06T05:02:25.534Z,34.01
2023-05-06T05:03:25.618Z,34.04
2023-05-06T05:04:25.443Z,34.07
2023-05-06T05:05:25.442Z,34.06
2023-05-06T05:06:25.459Z,34.00
2023-05-06T05:07:25.459Z,34.04
2023-05-06T05:08:25.459Z,34.00
2023-05-06T05:09:25.490Z,33.99
2023-05-06T05:10:25.511Z,34.02
2023-05-06T05:11:25.488Z,34.02
2023-05-06T05:12:25.488Z,34.01
2023-05-06T05:13:25.492Z,34.01
2023-05-06T05:14:25.527Z,34.03
2023-05-06T05:15:25.518Z,34.04
2023-05-06T05:16:25.566Z,34.03
2023-05-06T05:17:25.643Z,34.04
2023-05-06T05:18:25.553Z,34.01
2023-05-06T05:19:25.566Z,34.00
2023-05-06T05:20:25.566Z,34.02
2023-05-06T05:21:25.615Z,34.01
2023-05-06T05:22:25.602Z,34.00
2023-05-06T05:23:25.625Z,34.05
2023-05-06T05:24:25.634Z,34.04
2023-05-06T05:25:25.653Z,34.02
2023-05-06T05:26:25.660Z,34.02
2023-05-06T05:27:25.674Z,34.00
2023-05-06T05:28:25.686Z,34.02
2023-05-06T05:29:25.700Z,34.05
2023-05-06T05:30:25.728Z,34.02
2023-05-06T05:31:25.800Z,34.02
2023-05-06T05:32:25.801Z,34.03
2023-05-06T05:33:25.876Z,34.06
2023-05-06T05:34:25.749Z,34.04
2023-05-06T05:35:25.768Z,34.04
2023-05-06T05:36:25.767Z,33.98
2023-05-06T05:37:25.792Z,34.09
2023-05-06T05:38:25.777Z,34.02
2023-05-06T05:39:25.802Z,34.08
2023-05-06T05:40:25.819Z,34.08
2023-05-06T05:41:25.820Z,34.05
2023-05-06T05:42:25.831Z,34.04
2023-05-06T05:43:26.432Z,34.06
2023-05-06T05:44:25.862Z,34.06
2023-05-06T05:45:25.877Z,34.04
2023-05-06T05:46:25.920Z,34.05
2023-05-06T05:47:25.906Z,34.06
2023-05-06T05:48:25.908Z,34.06
2023-05-06T05:49:26.019Z,34.05
2023-05-06T05:50:25.947Z,34.06
2023-05-06T05:51:25.976Z,34.09
2023-05-06T05:52:25.966Z,34.09
2023-05-06T05:53:25.969Z,34.05
2023-05-06T05:54:25.979Z,34.04
2023-05-06T05:55:25.986Z,34.08
2023-05-06T05:56:26.013Z,34.01
2023-05-06T05:57:26.014Z,34.01
2023-05-06T05:58:26.031Z,34.04
2023-05-06T05:59:26.036Z,34.04
2023-05-06T06:00:26.066Z,34.05
2023-05-06T06:01:26.074Z,34.06
2023-05-06T06:02:26.146Z,34.08
2023-05-06T06:03:26.189Z,34.01
2023-05-06T06:04:26.132Z,34.02
2023-05-06T06:05:26.237Z,34.06
2023-05-06T06:06:26.153Z,34.04
2023-05-06T06:07:26.193Z,34.03
2023-05-06T06:08:26.197Z,34.03
2023-05-06T06:09:26.225Z,34.05
2023-05-06T06:10:26.242Z,34.06
2023-05-06T06:11:26.252Z,34.03
2023-05-06T06:12:26.270Z,34.03
2023-05-06T06:13:28.580Z,34.09
2023-05-06T06:14:26.283Z,34.08
2023-05-06T06:15:26.290Z,34.03
2023-05-06T06:16:26.335Z,34.05
2023-05-06T06:17:26.319Z,34.06
2023-05-06T06:18:26.422Z,34.06
2023-05-06T06:19:26.304Z,34.06
2023-05-06T06:20:26.303Z,34.05
2023-05-06T06:21:26.399Z,34.06
2023-05-06T06:22:26.330Z,34.04
2023-05-06T06:23:26.312Z,34.05
2023-05-06T06:24:26.300Z,34.06
2023-05-06T06:25:26.408Z,34.10
2023-05-06T06:26:26.301Z,34.05
2023-05-06T06:27:26.306Z,34.06
2023-05-06T06:28:26.308Z,34.06
2023-05-06T06:29:26.309Z,34.06
2023-05-06T06:30:26.296Z,34.02
2023-05-06T06:31:26.303Z,34.03
2023-05-06T06:32:26.322Z,34.06
2023-05-06T06:33:26.300Z,34.05
2023-05-06T06:34:26.299Z,34.08
2023-05-06T06:35:26.298Z,34.08
2023-05-06T06:36:26.287Z,34.05
2023-05-06T06:37:26.396Z,34.05
2023-05-06T06:38:26.283Z,34.05
2023-05-06T06:39:26.282Z,34.06
2023-05-06T06:40:26.973Z,34.03
2023-05-06T06:41:26.289Z,34.03
2023-05-06T06:42:27.281Z,34.08
2023-05-06T06:43:26.272Z,34.10
2023-05-06T06:44:26.273Z,34.06
2023-05-06T06:45:26.275Z,34.05
2023-05-06T06:46:26.261Z,34.07
2023-05-06T06:47:26.318Z,34.09
2023-05-06T06:48:26.259Z,34.05
2023-05-06T06:49:26.254Z,34.08
2023-05-06T06:50:26.282Z,34.06
2023-05-06T06:51:26.259Z,34.06
2023-05-06T06:52:26.254Z,34.10
2023-05-06T06:53:26.301Z,34.04
2023-05-06T06:54:26.250Z,34.08
2023-05-06T06:55:26.255Z,34.04
2023-05-06T06:56:26.250Z,34.09
2023-05-06T06:57:26.257Z,34.05
2023-05-06T06:58:26.260Z,34.03
2023-05-06T06:59:26.257Z,34.01
2023-05-06T07:00:26.338Z,34.05
2023-05-06T07:01:26.375Z,34.06
2023-05-06T07:02:26.310Z,34.05
2023-05-06T07:03:26.258Z,34.02
2023-05-06T07:04:26.260Z,34.04
2023-05-06T07:05:26.252Z,34.06
2023-05-06T07:06:26.267Z,34.02
2023-05-06T07:07:26.262Z,34.03
2023-05-06T07:08:26.281Z,34.04
2023-05-06T07:09:26.388Z,34.05
2023-05-06T07:10:26.357Z,34.10
2023-05-06T07:11:26.246Z,34.05
2023-05-06T07:12:26.249Z,34.05
2023-05-06T07:13:26.246Z,34.09
2023-05-06T07:14:26.293Z,34.05
2023-05-06T07:15:26.281Z,34.06
2023-05-06T07:16:26.290Z,34.09
2023-05-06T07:17:26.310Z,34.09
2023-05-06T07:18:26.253Z,34.06
2023-05-06T07:19:26.257Z,34.08
2023-05-06T07:20:26.248Z,34.06
2023-05-06T07:21:26.246Z,34.08
2023-05-06T07:22:26.259Z,34.06
2023-05-06T07:23:26.263Z,34.09
2023-05-06T07:24:26.281Z,34.06
2023-05-06T07:25:26.375Z,34.06
2023-05-06T07:26:26.299Z,34.10
2023-05-06T07:27:26.301Z,34.05
2023-05-06T07:28:26.322Z,34.01
2023-05-06T07:29:26.325Z,34.04
2023-05-06T07:30:26.368Z,34.05
2023-05-06T07:31:26.372Z,34.05
2023-05-06T07:32:26.380Z,34.05
2023-05-06T07:33:26.362Z,34.06
2023-05-06T07:34:26.366Z,34.01
2023-05-06T07:35:26.400Z,34.02
2023-05-06T07:36:26.388Z,34.02
2023-05-06T07:37:26.460Z,34.08
2023-05-06T07:38:26.411Z,34.06
2023-05-06T07:39:26.433Z,34.06
2023-05-06T07:40:26.453Z,34.02
2023-05-06T07:41:26.565Z,34.06
2023-05-06T07:42:26.492Z,34.02
2023-05-06T07:43:26.503Z,34.04
2023-05-06T07:44:26.644Z,34.01
2023-05-06T07:45:26.499Z,34.01
2023-05-06T07:46:26.593Z,34.04
2023-05-06T07:47:26.585Z,34.02
2023-05-06T07:48:26.589Z,34.01
2023-05-06T07:49:26.545Z,34.01
2023-05-06T07:50:26.563Z,33.98
2023-05-06T07:51:26.567Z,34.01
2023-05-06T07:52:26.582Z,34.04
2023-05-06T07:53:26.599Z,34.01
2023-05-06T07:54:26.605Z,34.04
2023-05-06T07:55:26.619Z,34.05
2023-05-06T07:56:26.624Z,34.05
2023-05-06T07:57:26.735Z,34.00
2023-05-06T07:58:26.647Z,34.05
2023-05-06T07:59:26.647Z,34.03
2023-05-06T08:00:26.655Z,34.04
2023-05-06T08:01:26.662Z,34.02
2023-05-06T08:02:26.795Z,34.01
2023-05-06T08:03:26.831Z,33.99
2023-05-06T08:04:26.754Z,34.01
2023-05-06T08:05:26.686Z,34.01
2023-05-06T08:06:26.698Z,34.04
2023-05-06T08:07:26.701Z,34.04
2023-05-06T08:08:26.705Z,34.03
2023-05-06T08:09:26.717Z,33.99
2023-05-06T08:10:26.754Z,34.03
2023-05-06T08:11:26.714Z,34.01
2023-05-06T08:12:26.732Z,34.01
2023-05-06T08:13:26.850Z,34.00
2023-05-06T08:14:26.738Z,34.05
2023-05-06T08:15:26.770Z,34.03
2023-05-06T08:16:26.754Z,34.04
2023-05-06T08:17:26.789Z,33.98
2023-05-06T08:18:26.820Z,34.03
2023-05-06T08:19:26.764Z,34.02
2023-05-06T08:20:26.760Z,34.03
2023-05-06T08:21:26.772Z,34.04
2023-05-06T08:22:26.769Z,34.04
2023-05-06T08:23:26.768Z,33.96
2023-05-06T08:24:26.781Z,33.99
2023-05-06T08:25:26.789Z,33.93
2023-05-06T08:26:26.777Z,33.99
2023-05-06T08:27:26.761Z,33.95
2023-05-06T08:28:26.768Z,34.00
2023-05-06T08:29:26.981Z,33.98
2023-05-06T08:30:26.773Z,33.97
2023-05-06T08:31:26.862Z,33.97
2023-05-06T08:32:26.785Z,33.91
2023-05-06T08:33:26.826Z,33.97
2023-05-06T08:34:26.824Z,33.98
2023-05-06T08:35:26.793Z,33.97
2023-05-06T08:36:26.991Z,33.94
2023-05-06T08:37:26.781Z,33.93
2023-05-06T08:38:26.795Z,33.90
2023-05-06T08:39:26.797Z,33.91
2023-05-06T08:40:26.866Z,33.93
2023-05-06T08:41:26.790Z,33.89
2023-05-06T08:42:26.811Z,33.89
2023-05-06T08:43:26.784Z,33.92
2023-05-06T08:44:26.773Z,33.89
2023-05-06T08:45:29.249Z,33.90
2023-05-06T08:46:26.771Z,33.89
2023-05-06T08:47:26.807Z,33.88
2023-05-06T08:48:26.839Z,33.88
2023-05-06T08:49:26.759Z,33.88
2023-05-06T08:50:26.748Z,33.85
2023-05-06T08:51:26.743Z,33.89
2023-05-06T08:52:26.743Z,33.86
2023-05-06T08:53:26.740Z,33.86
2023-05-06T08:54:26.750Z,33.88
2023-05-06T08:55:26.728Z,33.85
2023-05-06T08:56:26.728Z,33.87
2023-05-06T08:57:26.723Z,33.82
2023-05-06T08:58:26.742Z,33.88
2023-05-06T08:59:26.727Z,33.82
2023-05-06T09:00:26.790Z,33.93
2023-05-06T09:01:26.918Z,33.89
2023-05-06T09:02:26.756Z,33.82
2023-05-06T09:03:26.879Z,33.81
2023-05-06T09:04:26.781Z,33.86
2023-05-06T09:05:26.705Z,33.82
2023-05-06T09:06:26.703Z,33.82
2023-05-06T09:07:26.708Z,33.83
2023-05-06T09:08:27.052Z,33.86
2023-05-06T09:09:26.709Z,33.87
2023-05-06T09:10:26.699Z,33.84
2023-05-06T09:11:26.699Z,33.84
2023-05-06T09:12:26.697Z,33.84
2023-05-06T09:13:26.715Z,33.84
2023-05-06T09:14:26.683Z,33.83
2023-05-06T09:15:26.686Z,33.89
2023-05-06T09:16:26.746Z,33.84
2023-05-06T09:17:26.991Z,33.87
2023-05-06T09:18:26.714Z,33.83
2023-05-06T09:19:26.705Z,33.87
2023-05-06T09:20:26.713Z,33.86
2023-05-06T09:21:27.481Z,33.86
2023-05-06T09:22:26.684Z,33.80
2023-05-06T09:23:26.723Z,33.86
2023-05-06T09:24:26.681Z,33.84
2023-05-06T09:25:26.725Z,33.83
2023-05-06T09:26:26.677Z,33.83
2023-05-06T09:27:26.678Z,33.82
2023-05-06T09:28:26.692Z,33.78
2023-05-06T09:29:26.674Z,33.79
2023-05-06T09:30:26.701Z,33.79
2023-05-06T09:31:26.693Z,33.82
2023-05-06T09:32:26.682Z,33.75
2023-05-06T09:33:26.685Z,33.82
2023-05-06T09:34:26.660Z,33.78
2023-05-06T09:35:26.664Z,33.79
2023-05-06T09:36:26.697Z,33.79
2023-05-06T09:37:26.722Z,33.76
2023-05-06T09:38:26.731Z,33.79
2023-05-06T09:39:26.732Z,33.75
2023-05-06T09:40:26.729Z,33.79
2023-05-06T09:41:26.748Z,33.82
2023-05-06T09:42:26.757Z,33.78
2023-05-06T09:43:26.816Z,33.79
2023-05-06T09:44:26.813Z,33.76
2023-05-06T09:45:26.894Z,33.80
2023-05-06T09:46:26.894Z,33.82
2023-05-06T09:47:26.924Z,33.80
2023-05-06T09:48:26.910Z,33.79
2023-05-06T09:49:27.052Z,33.79
2023-05-06T09:50:26.989Z,33.78
2023-05-06T09:51:26.976Z,33.79
2023-05-06T09:52:27.005Z,33.73
2023-05-06T09:53:27.045Z,33.79
2023-05-06T09:54:27.063Z,33.78
2023-05-06T09:55:27.375Z,33.75
2023-05-06T09:56:27.117Z,33.78
2023-05-06T09:57:27.167Z,33.80
2023-05-06T09:58:27.222Z,33.78
2023-05-06T09:59:27.211Z,33.75
2023-05-06T10:00:27.231Z,33.79
2023-05-06T10:01:36.047Z,33.79
2023-05-06T10:02:27.337Z,33.76
2023-05-06T10:03:27.382Z,33.78
2023-05-06T10:04:27.368Z,33.80
2023-05-06T10:05:27.445Z,33.82
2023-05-06T10:06:27.216Z,33.78
2023-05-06T10:07:27.227Z,33.79
2023-05-06T10:08:27.228Z,33.82
2023-05-06T10:09:27.218Z,33.83
2023-05-06T10:10:27.218Z,33.80
2023-05-06T10:11:27.213Z,33.83
2023-05-06T10:12:27.205Z,33.81
2023-05-06T10:13:27.211Z,33.80
2023-05-06T10:14:27.192Z,33.80
2023-05-06T10:15:27.212Z,33.80
2023-05-06T10:16:27.204Z,33.75
2023-05-06T10:17:27.219Z,33.80
2023-05-06T10:18:27.188Z,33.83
2023-05-06T10:19:27.171Z,33.84
2023-05-06T10:20:27.192Z,33.84
2023-05-06T10:21:27.193Z,33.82
2023-05-06T10:22:27.181Z,33.83
2023-05-06T10:23:27.165Z,33.82
2023-05-06T10:24:27.178Z,33.90
2023-05-06T10:25:27.161Z,33.87
2023-05-06T10:26:27.161Z,33.87
2023-05-06T10:27:27.156Z,33.87
2023-05-06T10:28:28.965Z,33.86
2023-05-06T10:29:27.153Z,33.86
2023-05-06T10:30:27.148Z,33.86
2023-05-06T10:31:27.250Z,33.87
2023-05-06T10:32:27.237Z,33.89
2023-05-06T10:33:27.137Z,33.86
2023-05-06T10:34:27.166Z,33.82
2023-05-06T10:35:27.172Z,33.83
2023-05-06T10:36:27.248Z,33.83
2023-05-06T10:37:27.304Z,33.79
2023-05-06T10:38:27.318Z,33.89
2023-05-06T10:39:27.326Z,33.91
2023-05-06T10:40:27.384Z,33.87
2023-05-06T10:41:27.433Z,33.86
2023-05-06T10:42:27.511Z,33.83
2023-05-06T10:43:27.539Z,33.86
2023-05-06T10:44:27.556Z,33.86
2023-05-06T10:45:27.593Z,33.85
2023-05-06T10:46:27.608Z,33.86
2023-05-06T10:47:27.738Z,33.83
2023-05-06T10:48:27.738Z,33.82
2023-05-06T10:49:27.804Z,33.81
2023-05-06T10:50:27.837Z,33.81
2023-05-06T10:51:27.878Z,33.77
2023-05-06T10:52:27.919Z,33.77
2023-05-06T10:53:27.990Z,33.76
2023-05-06T10:54:28.025Z,33.75
2023-05-06T10:55:28.091Z,33.76
2023-05-06T10:56:28.157Z,33.73
2023-05-06T10:57:28.195Z,33.73
2023-05-06T10:58:28.233Z,33.70
2023-05-06T10:59:28.305Z,33.67
2023-05-06T11:00:28.352Z,33.72
2023-05-06T11:01:28.452Z,33.72
2023-05-06T11:02:28.482Z,33.72
2023-05-06T11:03:28.600Z,33.71
2023-05-06T11:04:28.517Z,33.65
2023-05-06T11:05:28.526Z,33.63
2023-05-06T11:06:28.570Z,33.63
2023-05-06T11:07:28.633Z,33.65
2023-05-06T11:08:28.639Z,33.66
2023-05-06T11:09:28.799Z,33.61
2023-05-06T11:10:28.713Z,33.65
2023-05-06T11:11:28.748Z,33.69
2023-05-06T11:12:28.792Z,33.64
2023-05-06T11:13:29.057Z,33.67
2023-05-06T11:14:28.863Z,33.64
2023-05-06T11:15:28.902Z,33.68
2023-05-06T11:16:28.954Z,33.61
2023-05-06T11:17:29.054Z,33.64
2023-05-06T11:18:28.998Z,33.67
2023-05-06T11:19:29.038Z,33.65
2023-05-06T11:20:29.062Z,33.60
2023-05-06T11:21:29.099Z,33.61
2023-05-06T11:22:29.127Z,33.62
2023-05-06T11:23:29.155Z,33.58
2023-05-06T11:24:29.214Z,33.61
2023-05-06T11:25:29.329Z,33.64
2023-05-06T11:26:29.261Z,33.57
2023-05-06T11:27:29.294Z,33.58
2023-05-06T11:28:29.337Z,33.58
2023-05-06T11:29:29.434Z,33.64
2023-05-06T11:30:29.513Z,33.64
2023-05-06T11:31:29.714Z,33.60
2023-05-06T11:32:29.588Z,33.57
2023-05-06T11:33:29.660Z,33.66
2023-05-06T11:34:29.724Z,33.57
2023-05-06T11:35:29.783Z,33.58
2023-05-06T11:36:29.849Z,33.60
2023-05-06T11:37:30.064Z,33.60
2023-05-06T11:38:29.986Z,33.58
2023-05-06T11:39:30.052Z,33.62
2023-05-06T11:40:30.115Z,33.63
2023-05-06T11:41:30.199Z,33.56
2023-05-06T11:42:30.250Z,33.60
2023-05-06T11:43:30.352Z,33.60
2023-05-06T11:44:30.375Z,33.57
2023-05-06T11:45:30.445Z,33.62
2023-05-06T11:46:30.546Z,33.64
2023-05-06T11:47:30.599Z,33.58
2023-05-06T11:48:30.633Z,33.62
2023-05-06T11:49:30.704Z,33.61
2023-05-06T11:50:30.767Z,33.58
2023-05-06T11:51:30.828Z,33.62
2023-05-06T11:52:30.892Z,33.60
2023-05-06T11:53:30.968Z,33.60
2023-05-06T11:54:31.025Z,33.64
2023-05-06T11:55:31.088Z,33.57
2023-05-06T11:56:31.155Z,33.64
2023-05-06T11:57:31.319Z,33.57
2023-05-06T11:58:31.274Z,33.59
2023-05-06T11:59:31.353Z,33.63
2023-05-06T12:00:31.400Z,33.66
2023-05-06T12:01:31.462Z,33.63
2023-05-06T12:02:31.597Z,33.66
2023-05-06T12:03:31.941Z,33.63
2023-05-06T12:04:31.672Z,33.63
2023-05-06T12:05:31.720Z,33.56
2023-05-06T12:06:31.773Z,33.62
2023-05-06T12:07:31.843Z,33.63
2023-05-06T12:08:31.901Z,33.60
2023-05-06T12:09:31.966Z,33.60
2023-05-06T12:10:32.009Z,33.56
2023-05-06T12:11:32.067Z,33.57
2023-05-06T12:12:32.130Z,33.60
2023-05-06T12:13:32.213Z,33.62
2023-05-06T12:14:32.265Z,33.58
2023-05-06T12:15:32.319Z,33.58
2023-05-06T12:16:32.476Z,33.57
2023-05-06T12:17:32.465Z,33.60
2023-05-06T12:18:32.502Z,33.57
2023-05-06T12:19:33.534Z,33.58
2023-05-06T12:20:32.612Z,33.58
2023-05-06T12:21:32.675Z,33.56
2023-05-06T12:22:32.739Z,33.56
2023-05-06T12:23:32.827Z,33.56
2023-05-06T12:24:32.826Z,33.60
2023-05-06T12:25:32.859Z,33.61
2023-05-06T12:26:32.933Z,33.56
2023-05-06T12:27:32.974Z,33.56
2023-05-06T12:28:33.080Z,33.59
2023-05-06T12:29:33.186Z,33.61
2023-05-06T12:30:33.138Z,33.58
2023-05-06T12:31:33.229Z,33.59
2023-05-06T12:32:33.321Z,33.56
2023-05-06T12:33:33.311Z,33.55
2023-05-06T12:34:33.375Z,33.62
2023-05-06T12:35:33.425Z,33.58
2023-05-06T12:36:33.483Z,33.59
2023-05-06T12:37:33.535Z,33.61
2023-05-06T12:38:33.586Z,33.59
2023-05-06T12:39:35.237Z,33.58
2023-05-06T12:40:33.784Z,33.59
2023-05-06T12:41:33.844Z,33.56
2023-05-06T12:42:33.886Z,33.59
2023-05-06T12:43:33.944Z,33.60
2023-05-06T12:44:34.100Z,33.56
2023-05-06T12:45:34.092Z,33.54
2023-05-06T12:46:34.157Z,33.56
2023-05-06T12:47:34.211Z,33.55
2023-05-06T12:48:34.211Z,33.61
2023-05-06T12:49:34.257Z,33.58
2023-05-06T12:50:34.302Z,33.54
2023-05-06T12:51:34.350Z,33.60
2023-05-06T12:52:34.400Z,33.58